createdAt,value
2022-09-20T00:00:21.886Z,100472.23
2022-09-20T00:02:52.543Z,100473.67
2022-09-20T00:05:23.208Z,100475.27
2022-09-20T00:07:53.987Z,100475.16
2022-09-20T00:10:24.613Z,100480.12
2022-09-20T00:12:55.277Z,100485.14
2022-09-20T00:15:25.974Z,100483.37
2022-09-20T00:17:56.759Z,100480.56
2022-09-20T00:20:27.785Z,100480.79
2022-09-20T00:22:58.459Z,100483.72
2022-09-20T00:25:29.821Z,100484.81
2022-09-20T00:28:00.522Z,100482.62
2022-09-20T00:30:31.483Z,100486.42
2022-09-20T00:33:02.292Z,100479.53
2022-09-20T00:35:33.270Z,100478.84
2022-09-20T00:38:03.946Z,100479.45
2022-09-20T00:40:34.594Z,100479.34
2022-09-20T00:43:05.478Z,100471.20
2022-09-20T00:45:36.331Z,100472.27
2022-09-20T00:48:14.668Z,100475.70
2022-09-20T00:50:48.258Z,100474.08
2022-09-20T00:53:24.135Z,100476.12
2022-09-20T00:55:57.954Z,100478.98
2022-09-20T00:58:33.860Z,100483.71
2022-09-20T01:01:05.695Z,100482.34
2022-09-20T01:03:38.378Z,100483.25
2022-09-20T01:06:13.006Z,100482.00
2022-09-20T01:08:47.456Z,100478.52
2022-09-20T01:11:18.174Z,100480.30
2022-09-20T01:13:48.954Z,100480.98
2022-09-20T01:16:21.640Z,100480.24
2022-09-20T01:18:53.377Z,100481.64
2022-09-20T01:21:24.730Z,100480.19
2022-09-20T01:24:04.922Z,100482.98
2022-09-20T01:27:08.769Z,100480.23
2022-09-20T01:29:54.052Z,100476.02
2022-09-20T01:32:32.258Z,100477.46
2022-09-20T01:35:03.629Z,100478.65
2022-09-20T01:37:45.182Z,100474.48
2022-09-20T01:40:27.072Z,100473.27
2022-09-20T01:43:06.534Z,100475.45
2022-09-20T01:45:41.186Z,100475.38
2022-09-20T01:48:25.927Z,100473.51
2022-09-20T01:51:31.479Z,100474.23
2022-09-20T01:54:22.683Z,100474.02
2022-09-20T01:57:27.354Z,100474.39
2022-09-20T02:00:19.637Z,100474.24
2022-09-20T02:03:24.831Z,100474.05
2022-09-20T02:06:29.362Z,100475.45
2022-09-20T02:09:32.643Z,100476.48
2022-09-20T02:12:18.602Z,100476.59
2022-09-20T02:14:59.389Z,100478.77
2022-09-20T02:17:43.250Z,100478.34
2022-09-20T02:20:33.193Z,100479.52
2022-09-20T02:23:22.635Z,100479.64
2022-09-20T02:26:26.771Z,100484.09
2022-09-20T02:29:08.331Z,100481.71
2022-09-20T02:32:01.735Z,100484.71
2022-09-20T02:34:52.530Z,100484.15
2022-09-20T02:37:46.106Z,100484.20
2022-09-20T02:40:28.240Z,100485.43
2022-09-20T02:43:08.179Z,100489.76
2022-09-20T02:45:47.419Z,100492.20
2022-09-20T02:48:25.447Z,100496.83
2022-09-20T02:51:02.255Z,100495.92
2022-09-20T02:53:46.250Z,100495.27
2022-09-20T02:56:26.474Z,100500.21
2022-09-20T02:59:04.596Z,100501.33
2022-09-20T03:01:46.393Z,100502.63
2022-09-20T03:04:34.295Z,100507.38
2022-09-20T03:07:13.963Z,100497.60
2022-09-20T03:09:49.069Z,100503.31
2022-09-20T03:12:34.874Z,100509.92
2022-09-20T03:15:21.158Z,100512.55
2022-09-20T03:18:03.578Z,100511.37
2022-09-20T03:20:43.084Z,100511.55
2022-09-20T03:23:25.135Z,100511.28
2022-09-20T03:26:01.829Z,100514.48
2022-09-20T03:28:49.348Z,100517.89
2022-09-20T03:31:32.549Z,100518.09
2022-09-20T03:34:14.148Z,100520.09
2022-09-20T03:37:23.911Z,100517.56
2022-09-20T03:40:16.818Z,100515.55
2022-09-20T03:42:50.621Z,100518.81
2022-09-20T03:46:04.324Z,100518.91
2022-09-20T03:49:04.246Z,100516.14
2022-09-20T03:51:46.459Z,100517.73
2022-09-20T03:54:43.575Z,100519.05
2022-09-20T03:57:59.791Z,100520.02
2022-09-20T04:00:45.520Z,100523.04
2022-09-20T04:03:36.755Z,100524.48
2022-09-20T04:06:40.719Z,100526.77
2022-09-20T04:09:36.381Z,100530.18
2022-09-20T04:12:17.560Z,100534.23
2022-09-20T04:14:55.696Z,100532.52
2022-09-20T04:17:44.114Z,100533.33
2022-09-20T04:20:24.304Z,100531.73
2022-09-20T04:22:59.191Z,100540.15
2022-09-20T04:25:37.541Z,100537.50
2022-09-20T04:28:16.806Z,100538.11
2022-09-20T04:30:47.943Z,100539.77
2022-09-20T04:33:28.074Z,100546.48
2022-09-20T04:36:30.313Z,100543.39
2022-09-20T04:39:10.394Z,100544.48
2022-09-20T04:42:12.318Z,100546.03
2022-09-20T04:45:08.313Z,100548.41
2022-09-20T04:48:30.178Z,100548.48
2022-09-20T04:51:33.394Z,100548.27
2022-09-20T04:54:46.173Z,100555.63
2022-09-20T04:57:41.406Z,100557.63
2022-09-20T05:00:14.825Z,100559.41
2022-09-20T05:03:23.425Z,100559.50
2022-09-20T05:06:19.624Z,100562.86
2022-09-20T05:09:21.140Z,100569.02
2022-09-20T05:12:18.659Z,100569.67
2022-09-20T05:15:12.793Z,100572.77
2022-09-20T05:18:04.344Z,100571.15
2022-09-20T05:20:54.019Z,100572.84
2022-09-20T05:23:53.763Z,100580.13
2022-09-20T05:26:38.937Z,100577.20
2022-09-20T05:29:16.040Z,100579.23
2022-09-20T05:31:54.552Z,100582.14
2022-09-20T05:34:34.537Z,100580.56
2022-09-20T05:37:18.142Z,100580.75
2022-09-20T05:39:55.596Z,100581.67
2022-09-20T05:42:40.161Z,100582.96
2022-09-20T05:45:21.556Z,100587.42
2022-09-20T05:48:00.626Z,100592.36
2022-09-20T05:50:46.441Z,100596.26
2022-09-20T05:53:54.353Z,100600.30
2022-09-20T05:56:38.590Z,100604.63
2022-09-20T05:59:35.785Z,100607.32
2022-09-20T06:02:21.938Z,100605.27
2022-09-20T06:05:01.495Z,100610.11
2022-09-20T06:07:46.076Z,100612.79
2022-09-20T06:10:23.557Z,100613.77
2022-09-20T06:13:01.759Z,100614.73
2022-09-20T06:15:44.857Z,100619.48
2022-09-20T06:18:27.730Z,100618.97
2022-09-20T06:21:06.962Z,100617.55
2022-09-20T06:23:38.564Z,100619.70
2022-09-20T06:26:17.415Z,100622.14
2022-09-20T06:28:55.210Z,100624.06
2022-09-20T06:31:28.551Z,100621.95
2022-09-20T06:34:04.489Z,100623.39
2022-09-20T06:37:00.370Z,100623.02
2022-09-20T06:39:59.913Z,100624.10
2022-09-20T06:42:30.933Z,100626.46
2022-09-20T06:45:01.544Z,100624.51
2022-09-20T06:47:35.652Z,100624.16
2022-09-20T06:50:15.798Z,100628.27
2022-09-20T06:52:47.492Z,100629.89
2022-09-20T06:55:26.124Z,100630.80
2022-09-20T06:57:59.916Z,100632.30
2022-09-20T07:00:30.884Z,100637.92
2022-09-20T07:03:01.569Z,100636.34
2022-09-20T07:05:32.702Z,100638.05
2022-09-20T07:08:04.244Z,100638.65
2022-09-20T07:10:35.531Z,100644.31
2022-09-20T07:13:06.719Z,100646.98
2022-09-20T07:15:37.908Z,100648.27
2022-09-20T07:18:09.554Z,100649.56
2022-09-20T07:20:41.782Z,100649.34
2022-09-20T07:23:12.459Z,100650.52
2022-09-20T07:25:43.206Z,100654.83
2022-09-20T07:28:13.779Z,100659.90
2022-09-20T07:30:44.466Z,100659.07
2022-09-20T07:33:19.480Z,100661.48
2022-09-20T07:35:51.122Z,100664.71
2022-09-20T07:38:22.318Z,100667.20
2022-09-20T07:40:59.719Z,100672.27
2022-09-20T07:43:30.802Z,100673.73
2022-09-20T07:46:01.614Z,100678.55
2022-09-20T07:48:34.358Z,100680.64
2022-09-20T07:51:09.034Z,100681.13
2022-09-20T07:53:40.220Z,100681.85
2022-09-20T07:56:14.264Z,100683.02
2022-09-20T07:58:50.076Z,100684.30
2022-09-20T08:01:23.602Z,100687.16
2022-09-20T08:03:54.869Z,100686.98
2022-09-20T08:06:26.964Z,100687.30
2022-09-20T08:08:58.192Z,100692.02
2022-09-20T08:11:30.297Z,100695.54
2022-09-20T08:14:06.677Z,100693.59
2022-09-20T08:16:42.831Z,100695.33
2022-09-20T08:19:18.263Z,100695.73
2022-09-20T08:21:49.892Z,100697.19
2022-09-20T08:24:20.831Z,100698.98
2022-09-20T08:26:51.710Z,100696.94
2022-09-20T08:29:22.405Z,100700.39
2022-09-20T08:31:55.724Z,100702.77
2022-09-20T08:34:26.799Z,100703.10
2022-09-20T08:36:57.496Z,100708.31
2022-09-20T08:42:23.199Z,100709.64
2022-09-20T08:44:58.656Z,100709.73
2022-09-20T08:47:32.115Z,100711.38
2022-09-20T08:50:17.258Z,100715.27
2022-09-20T08:52:50.854Z,100715.01
2022-09-20T08:55:26.184Z,100714.52
2022-09-20T08:57:58.761Z,100717.67
2022-09-20T09:00:33.737Z,100714.58
2022-09-20T09:03:08.223Z,100710.45
2022-09-20T09:05:44.345Z,100716.65
2022-09-20T09:08:17.093Z,100715.45
2022-09-20T09:10:54.908Z,100722.63
2022-09-20T09:13:32.911Z,100720.31
2022-09-20T09:16:07.733Z,100719.49
2022-09-20T09:18:42.495Z,100720.08
2022-09-20T09:21:21.578Z,100715.34
2022-09-20T09:23:58.408Z,100721.88
2022-09-20T09:26:30.228Z,100723.97
2022-09-20T09:29:21.477Z,100725.69
2022-09-20T09:31:55.032Z,100722.23
2022-09-20T09:34:28.772Z,100725.46
2022-09-20T09:37:00.242Z,100722.36
2022-09-20T09:39:32.365Z,100724.23
2022-09-20T09:42:20.501Z,100723.62
2022-09-20T09:44:51.283Z,100724.22
2022-09-20T09:47:29.335Z,100722.73
2022-09-20T09:50:06.091Z,100722.89
2022-09-20T09:52:39.698Z,100728.82
2022-09-20T09:55:15.227Z,100729.27
2022-09-20T09:57:56.016Z,100730.98
2022-09-20T10:00:28.857Z,100727.01
2022-09-20T10:03:21.134Z,100730.38
2022-09-20T10:06:08.582Z,100732.70
2022-09-20T10:08:51.138Z,100727.98
2022-09-20T10:11:31.911Z,100734.27
2022-09-20T10:14:17.148Z,100735.73
2022-09-20T10:17:06.922Z,100738.55
2022-09-20T10:19:47.844Z,100733.59
2022-09-20T10:22:31.242Z,100738.92
2022-09-20T10:25:13.161Z,100733.63
2022-09-20T10:27:58.254Z,100732.98
2022-09-20T10:30:36.985Z,100737.55
2022-09-20T10:33:19.507Z,100740.66
2022-09-20T10:36:02.731Z,100737.78
2022-09-20T10:38:38.885Z,100739.55
2022-09-20T10:41:50.956Z,100739.00
2022-09-20T10:44:46.477Z,100744.63
2022-09-20T10:47:20.269Z,100749.02
2022-09-20T10:50:05.644Z,100749.73
2022-09-20T10:52:51.994Z,100749.30
2022-09-20T10:55:35.999Z,100747.95
2022-09-20T10:58:41.930Z,100748.69
2022-09-20T11:01:21.010Z,100746.30
2022-09-20T11:04:27.401Z,100747.91
2022-09-20T11:07:11.415Z,100743.48
2022-09-20T11:09:48.769Z,100739.38
2022-09-20T11:12:27.007Z,100739.38
2022-09-20T11:15:00.970Z,100738.52
2022-09-20T11:17:36.462Z,100739.68
2022-09-20T11:20:17.050Z,100740.16
2022-09-20T11:22:53.806Z,100739.83
2022-09-20T11:25:32.147Z,100740.98
2022-09-20T11:28:11.161Z,100742.61
2022-09-20T11:30:50.137Z,100744.27
2022-09-20T11:33:26.647Z,100744.66
2022-09-20T11:36:00.674Z,100742.55
2022-09-20T11:38:42.200Z,100742.67
2022-09-20T11:41:16.815Z,100742.65
2022-09-20T11:43:48.934Z,100742.82
2022-09-20T11:46:26.887Z,100741.45
2022-09-20T11:49:02.914Z,100740.21
2022-09-20T11:51:51.386Z,100738.96
2022-09-20T11:54:43.689Z,100739.02
2022-09-20T11:57:17.518Z,100736.84
2022-09-20T11:59:56.380Z,100734.48
2022-09-20T12:02:35.039Z,100736.09
2022-09-20T12:05:07.535Z,100730.57
2022-09-20T12:07:39.757Z,100732.07
2022-09-20T12:10:24.902Z,100728.40
2022-09-20T12:13:01.347Z,100732.05
2022-09-20T12:15:34.072Z,100731.34
2022-09-20T12:18:37.519Z,100726.56
2022-09-20T12:21:17.319Z,100721.14
2022-09-20T12:24:19.332Z,100725.20
2022-09-20T12:26:52.014Z,100719.62
2022-09-20T12:29:53.117Z,100716.21
2022-09-20T12:33:02.586Z,100719.66
2022-09-20T12:36:15.086Z,100717.55
2022-09-20T12:38:58.702Z,100716.67
2022-09-20T12:41:30.187Z,100717.08
2022-09-20T12:44:06.059Z,100718.53
2022-09-20T12:46:41.483Z,100717.06
2022-09-20T12:49:48.329Z,100711.39
2022-09-20T12:52:56.917Z,100713.22
2022-09-20T12:55:46.137Z,100711.33
2022-09-20T12:58:49.119Z,100714.05
2022-09-20T13:01:40.231Z,100712.16
2022-09-20T13:04:55.530Z,100715.14
2022-09-20T13:07:48.958Z,100708.59
2022-09-20T13:10:34.859Z,100712.19
2022-09-20T13:13:13.489Z,100710.91
2022-09-20T13:15:53.518Z,100714.86
2022-09-20T13:18:26.385Z,100714.86
2022-09-20T13:21:00.338Z,100709.41
2022-09-20T13:23:34.134Z,100714.63
2022-09-20T13:26:10.483Z,100714.93
2022-09-20T13:28:47.075Z,100715.48
2022-09-20T13:31:28.441Z,100720.79
2022-09-20T13:34:15.587Z,100723.65
2022-09-20T13:36:46.873Z,100728.41
2022-09-20T13:39:37.387Z,100728.92
2022-09-20T13:42:19.978Z,100725.79
2022-09-20T13:44:51.183Z,100732.19
2022-09-20T13:47:30.041Z,100732.70
2022-09-20T13:50:17.117Z,100734.95
2022-09-20T13:52:50.334Z,100740.30
2022-09-20T13:55:33.828Z,100750.59
2022-09-20T13:58:07.442Z,100769.60
2022-09-20T14:00:38.956Z,100775.42
2022-09-20T14:03:17.371Z,100781.06
2022-09-20T14:05:52.687Z,100784.05
2022-09-20T14:08:27.714Z,100789.88
2022-09-20T14:11:09.568Z,100788.42
2022-09-20T14:13:43.106Z,100789.96
2022-09-20T14:16:15.318Z,100789.30
2022-09-20T14:18:48.290Z,100791.79
2022-09-20T14:21:25.475Z,100794.14
2022-09-20T14:23:59.808Z,100791.63
2022-09-20T14:26:36.264Z,100792.04
2022-09-20T14:29:39.973Z,100789.09
2022-09-20T14:32:23.031Z,100787.99
2022-09-20T14:35:02.559Z,100782.29
2022-09-20T14:37:36.419Z,100780.75
2022-09-20T14:40:18.796Z,100781.80
2022-09-20T14:42:51.969Z,100791.27
2022-09-20T14:45:30.903Z,100797.71
2022-09-20T14:48:10.332Z,100792.84
2022-09-20T14:50:43.379Z,100798.57
2022-09-20T14:53:27.333Z,100791.54
2022-09-20T14:56:12.641Z,100785.05
2022-09-20T14:59:21.552Z,100782.59
2022-09-20T15:02:02.962Z,100782.84
2022-09-20T15:04:35.758Z,100779.53
2022-09-20T15:07:10.617Z,100780.10
2022-09-20T15:09:41.585Z,100780.12
2022-09-20T15:12:16.664Z,100781.30
2022-09-20T15:14:47.768Z,100785.48
2022-09-20T15:17:20.299Z,100788.33
2022-09-20T15:19:51.918Z,100788.42
2022-09-20T15:22:22.583Z,100791.05
2022-09-20T15:24:53.310Z,100790.16
2022-09-20T15:27:28.206Z,100791.05
2022-09-20T15:29:59.323Z,100796.74
2022-09-20T15:32:29.962Z,100798.95
2022-09-20T15:35:00.581Z,100800.27
2022-09-20T15:37:31.204Z,100803.34
2022-09-20T15:40:03.036Z,100807.67
2022-09-20T15:42:38.192Z,100805.65
2022-09-20T15:45:13.287Z,100804.61
2022-09-20T15:47:44.365Z,100808.38
2022-09-20T15:50:14.975Z,100809.85
2022-09-20T15:52:47.255Z,100811.39
2022-09-20T15:55:18.597Z,100812.40
2022-09-20T15:57:49.803Z,100813.11
2022-09-20T16:00:20.942Z,100816.11
2022-09-20T16:02:52.674Z,100815.16
2022-09-20T16:05:23.289Z,100816.36
2022-09-20T16:07:53.908Z,100818.80
2022-09-20T16:10:24.577Z,100822.39
2022-09-20T16:12:55.186Z,100822.64
2022-09-20T16:15:25.818Z,100824.80
2022-09-20T16:18:14.455Z,100826.15
2022-09-20T16:20:45.314Z,100828.20
2022-09-20T16:23:17.679Z,100826.80
2022-09-20T16:25:50.538Z,100827.33
2022-09-20T16:28:21.288Z,100834.05
2022-09-20T16:30:59.944Z,100837.16
2022-09-20T16:33:33.312Z,100837.48
2022-09-20T16:36:04.369Z,100840.61
2022-09-20T16:38:35.118Z,100843.27
2022-09-20T16:41:06.160Z,100844.11
2022-09-20T16:43:37.154Z,100847.88
2022-09-20T16:46:10.431Z,100854.09
2022-09-20T16:48:42.607Z,100853.21
2022-09-20T16:51:13.491Z,100854.17
2022-09-20T16:53:45.144Z,100855.08
2022-09-20T16:56:22.882Z,100857.29
2022-09-20T16:58:53.928Z,100864.23
2022-09-20T17:01:24.813Z,100868.05
2022-09-20T17:03:56.838Z,100887.67
2022-09-20T17:06:28.926Z,100918.78
2022-09-20T17:09:00.923Z,100920.80
2022-09-20T17:11:33.928Z,100927.91
2022-09-20T17:14:05.389Z,100935.77
2022-09-20T17:16:37.805Z,100938.50
2022-09-20T17:19:08.395Z,100940.65
2022-09-20T17:21:38.740Z,100944.75
2022-09-20T17:24:10.525Z,100941.41
2022-09-20T17:26:43.539Z,100934.85
2022-09-20T17:29:16.932Z,100921.79
2022-09-20T17:31:55.206Z,100922.52
2022-09-20T17:34:30.020Z,100918.80
2022-09-20T17:37:01.664Z,100919.25
2022-09-20T17:39:32.433Z,100931.75
2022-09-20T17:42:03.194Z,100921.95
2022-09-20T17:44:36.760Z,100919.37
2022-09-20T17:47:08.167Z,100923.23
2022-09-20T17:49:40.623Z,100923.70
2022-09-20T17:52:11.328Z,100925.02
2022-09-20T17:54:42.298Z,100928.45
2022-09-20T17:57:12.930Z,100927.73
2022-09-20T17:59:46.247Z,100931.94
2022-09-20T18:02:16.824Z,100938.20
2022-09-20T18:04:47.462Z,100941.55
2022-09-20T18:07:18.218Z,100949.30
2022-09-20T18:09:51.177Z,100948.61
2022-09-20T18:12:21.885Z,100951.28
2022-09-20T18:14:53.801Z,100956.32
2022-09-20T18:17:24.426Z,100960.71
2022-09-20T18:19:55.063Z,100960.83
2022-09-20T18:22:25.742Z,100966.21
2022-09-20T18:24:56.367Z,100972.69
2022-09-20T18:27:27.183Z,100974.48
2022-09-20T18:29:57.769Z,100977.02
2022-09-20T18:32:30.495Z,100980.52
2022-09-20T18:35:01.870Z,100981.20
2022-09-20T18:37:32.435Z,100981.03
2022-09-20T18:40:03.394Z,100981.20
2022-09-20T18:42:34.799Z,100986.02
2022-09-20T18:45:06.168Z,100984.23
2022-09-20T18:47:36.773Z,100987.84
2022-09-20T18:50:10.424Z,100991.33
2022-09-20T18:52:41.118Z,100993.31
2022-09-20T18:55:14.058Z,100999.08
2022-09-20T18:57:45.934Z,100997.46
2022-09-20T19:00:18.463Z,100995.81
2022-09-20T19:02:57.162Z,101001.55
2022-09-20T19:05:33.130Z,101006.12
2022-09-20T19:08:20.898Z,101005.40
2022-09-20T19:10:55.221Z,101008.09
2022-09-20T19:13:45.033Z,101005.84
2022-09-20T19:16:20.777Z,101010.02
2022-09-20T19:19:06.733Z,101011.55
2022-09-20T19:21:46.850Z,101014.04
2022-09-20T19:24:29.794Z,101012.96
2022-09-20T19:27:01.013Z,101020.13
2022-09-20T19:29:33.259Z,101019.45
2022-09-20T19:32:06.143Z,101024.45
2022-09-20T19:34:38.072Z,101029.91
2022-09-20T19:37:25.902Z,101031.67
2022-09-20T19:40:09.118Z,101036.98
2022-09-20T19:42:55.140Z,101035.77
2022-09-20T19:45:32.269Z,101037.45
2022-09-20T19:48:13.917Z,101036.55
2022-09-20T19:50:49.266Z,101038.05
2022-09-20T19:53:26.636Z,101039.41
2022-09-20T19:56:00.665Z,101043.18
2022-09-20T19:58:32.718Z,101043.74
2022-09-20T20:01:04.417Z,101046.55
2022-09-20T20:03:36.891Z,101047.22
2022-09-20T20:06:09.578Z,101047.00
2022-09-20T20:08:45.974Z,101046.95
2022-09-20T20:11:27.068Z,101049.36
2022-09-20T20:14:07.958Z,101051.13
2022-09-20T20:16:51.352Z,101056.26
2022-09-20T20:19:47.468Z,101055.81
2022-09-20T20:22:30.907Z,101060.58
2022-09-20T20:25:02.223Z,101062.95
2022-09-20T20:27:32.806Z,101064.39
2022-09-20T20:30:03.423Z,101066.82
2022-09-20T20:32:34.218Z,101070.55
2022-09-20T20:35:05.623Z,101073.94
2022-09-20T20:37:39.852Z,101077.56
2022-09-20T20:40:14.996Z,101074.75
2022-09-20T20:42:45.862Z,101076.52
2022-09-20T20:45:16.800Z,101082.05
2022-09-20T20:47:48.720Z,101086.34
2022-09-20T20:50:19.479Z,101088.25
2022-09-20T20:52:54.936Z,101089.34
2022-09-20T20:55:25.988Z,101093.88
2022-09-20T20:57:58.174Z,101094.52
2022-09-20T21:00:30.085Z,101094.09
2022-09-20T21:03:02.818Z,101092.35
2022-09-20T21:05:33.704Z,101095.67
2022-09-20T21:08:04.932Z,101095.92
2022-09-20T21:10:35.966Z,101098.73
2022-09-20T21:13:06.736Z,101098.05
2022-09-20T21:15:37.496Z,101101.06
2022-09-20T21:18:08.370Z,101102.34
2022-09-20T21:20:40.638Z,101104.88
2022-09-20T21:23:11.350Z,101104.93
2022-09-20T21:25:42.425Z,101109.14
2022-09-20T21:28:13.116Z,101112.41
2022-09-20T21:30:43.892Z,101114.44
2022-09-20T21:33:14.504Z,101108.81
2022-09-20T21:35:45.232Z,101118.08
2022-09-20T21:38:16.178Z,101123.31
2022-09-20T21:40:46.909Z,101121.57
2022-09-20T21:43:17.748Z,101119.08
2022-09-20T21:45:48.538Z,101121.86
2022-09-20T21:48:19.350Z,101120.61
2022-09-20T21:50:50.077Z,101124.61
2022-09-20T21:53:20.946Z,101125.36
2022-09-20T21:55:56.315Z,101128.86
2022-09-20T21:58:27.638Z,101127.71
2022-09-20T22:01:03.548Z,101133.38
2022-09-20T22:03:37.197Z,101136.98
2022-09-20T22:06:10.873Z,101131.02
2022-09-20T22:08:43.502Z,101143.45
2022-09-20T22:11:15.921Z,101144.00
2022-09-20T22:13:47.968Z,101144.23
2022-09-20T22:16:20.811Z,101141.48
2022-09-20T22:18:52.146Z,101139.20
2022-09-20T22:21:24.600Z,101140.05
2022-09-20T22:23:57.554Z,101139.10
2022-09-20T22:26:31.042Z,101143.08
2022-09-20T22:29:02.100Z,101142.45
2022-09-20T22:31:34.675Z,101142.48
2022-09-20T22:34:07.511Z,101141.61
2022-09-20T22:36:40.059Z,101139.92
2022-09-20T22:39:10.858Z,101141.11
2022-09-20T22:41:42.894Z,101141.54
2022-09-20T22:44:14.080Z,101138.94
2022-09-20T22:46:44.843Z,101141.27
2022-09-20T22:49:15.692Z,101140.16
2022-09-20T22:51:46.389Z,101145.23
2022-09-20T22:54:17.104Z,101141.70
2022-09-20T22:56:47.692Z,101139.81
2022-09-20T22:59:18.538Z,101137.55
2022-09-20T23:01:49.812Z,101138.75
2022-09-20T23:04:22.319Z,101147.48
2022-09-20T23:06:55.043Z,101144.09
2022-09-20T23:09:28.555Z,101145.87
2022-09-20T23:11:59.318Z,101142.02
2022-09-20T23:14:30.007Z,101144.55
2022-09-20T23:17:00.686Z,101144.85
2022-09-20T23:19:31.434Z,101143.58
2022-09-20T23:22:02.014Z,101147.97
2022-09-20T23:24:32.700Z,101142.48
2022-09-20T23:27:03.428Z,101147.89
2022-09-20T23:29:34.121Z,101144.48
2022-09-20T23:32:05.192Z,101147.66
2022-09-20T23:34:36.145Z,101148.59
2022-09-20T23:37:07.808Z,101149.27
2022-09-20T23:39:38.710Z,101151.71
2022-09-20T23:42:10.278Z,101150.95
2022-09-20T23:44:40.867Z,101151.10
2022-09-20T23:47:11.549Z,101151.85
2022-09-20T23:49:42.224Z,101150.30
2022-09-20T23:52:13.007Z,101150.48
2022-09-20T23:54:43.760Z,101151.41
2022-09-20T23:57:15.276Z,101155.48
2022-09-20T23:59:45.975Z,101155.94
